Pleasant Hill, Tennessee
Current Conditions -  °F | °C
As of 2:53 PM on Wednesday 17 Dec 2014 (Local Time) from KCSV Reporting Station
Clear Clear  
Wind Chill: 34°   Ceiling: Unl
Heat Index: 39°   Visibility: 10mi
Dew Point: 29°   Wind: 7mph
Humidity: 67%   Direction: 320°NW
Pressure: 30.18"   Gusts: NA
Location:  35.98°N, 85.19°W
Report Text: KCSV 172053Z AUTO 32006KT 10SM CLR 04/M02 A3018 RMK AO2 SLP226 T00391017 55008
Loading
Personal Weather Stations






























Interactive Weather Map New forecast layout! Learn more

10-Day Weather Forecast

Advertisements
Track Severe Weather on mobile